Time;durP1;ratioP1;P1;durP2;ratioP2;P2;SDS_P1;SDS_P2;PMS_P1;PMS_P2;Temp;Humidity;BMP_temperature;BMP_pressure;BME280_temperature;BME280_humidity;BME280_pressure;Samples;Min_cycle;Max_cycle;Signal;HPM_P1;HPM_P2
2023/06/16 00:01:59;;;;;;;;;;;;;;;24.86;35.87;101345.13;4113315;28;19980;-59
2023/06/16 00:04:03;;;;;;;;;;;;;;;24.86;35.85;101360.38;4113250;28;19926;-59
2023/06/16 00:06:14;;;;;;;;;;;;;;;24.84;35.67;101355.16;4113344;28;19949;-59
2023/06/16 00:08:16;;;;;;;;;;;;;;;24.84;35.79;101355.16;4112495;28;19927;-60
2023/06/16 00:10:18;;;;;;;;;;;;;;;24.84;36.01;101349.75;4112867;28;20571;-60
2023/06/16 00:12:20;;;;;;;;;;;;;;;24.84;36.12;101363.22;4113046;28;19933;-60
2023/06/16 00:14:22;;;;;;;;;;;;;;;24.84;36.05;101362.38;4112691;28;19961;-60
2023/06/16 00:16:23;;;;;;;;;;;;;;;24.82;36.16;101365.19;4113110;28;20433;-60
2023/06/16 00:18:27;;;;;;;;;;;;;;;24.81;36.14;101366.19;4112096;28;20089;-59
2023/06/16 00:20:29;;;;;;;;;;;;;;;24.81;36.13;101363.50;4112762;28;19926;-59
2023/06/16 00:22:34;;;;;;;;;;;;;;;24.81;36.06;101368.00;4113154;28;20013;-59
2023/06/16 00:24:36;;;;;;;;;;;;;;;24.80;35.93;101369.88;4112942;28;19927;-59
2023/06/16 00:26:40;;;;;;;;;;;;;;;24.80;36.21;101360.91;4112271;28;20338;-58
2023/06/16 00:28:42;;;;;;;;;;;;;;;24.78;35.92;101361.06;4111767;28;19985;-59
2023/06/16 00:30:44;;;;;;;;;;;;;;;24.78;36.27;101358.38;4112441;28;19934;-58
2023/06/16 00:32:46;;;;;;;;;;;;;;;24.78;35.74;101354.84;4112800;28;20331;-59
2023/06/16 00:34:48;;;;;;;;;;;;;;;24.78;36.14;101354.84;4118191;28;20318;-59
2023/06/16 00:36:49;;;;;;;;;;;;;;;24.77;36.19;101366.56;4128769;28;20359;-60
2023/06/16 00:38:51;;;;;;;;;;;;;;;24.75;35.75;101358.63;4127746;28;20394;-59
2023/06/16 00:40:52;;;;;;;;;;;;;;;24.74;36.25;101356.94;4128609;28;19967;-59
2023/06/16 00:42:58;;;;;;;;;;;;;;;24.74;35.98;101356.94;4128205;28;19973;-59
2023/06/16 00:45:00;;;;;;;;;;;;;;;24.74;36.29;101359.63;4127755;28;20371;-59
2023/06/16 00:47:02;;;;;;;;;;;;;;;24.74;35.94;101366.81;4128813;28;19956;-60
2023/06/16 00:49:04;;;;;;;;;;;;;;;24.74;36.11;101364.13;4111783;28;20029;-59
2023/06/16 00:51:06;;;;;;;;;;;;;;;24.72;35.99;101367.81;4112853;28;19926;-59
2023/06/16 00:53:08;;;;;;;;;;;;;;;24.72;36.03;101366.97;4127409;28;20296;-60
2023/06/16 00:55:11;;;;;;;;;;;;;;;24.71;36.05;101366.09;4112800;28;19933;-60
2023/06/16 00:57:13;;;;;;;;;;;;;;;24.71;35.78;101371.47;4112559;28;19988;-61
2023/06/16 00:59:15;;;;;;;;;;;;;;;24.70;35.75;101369.81;4111172;28;20320;-60
2023/06/16 01:01:17;;;;;;;;;;;;;;;24.70;35.98;101367.09;4112718;28;20360;-60
2023/06/16 01:03:19;;;;;;;;;;;;;;;24.69;36.04;101364.53;4112473;28;19976;-60
2023/06/16 01:05:21;;;;;;;;;;;;;;;24.69;35.79;101373.47;4112652;28;20387;-59
2023/06/16 01:07:29;;;;;;;;;;;;;;;24.69;36.24;101370.78;4112516;28;19926;-60
2023/06/16 01:09:48;;;;;;;;;;;;;;;24.67;36.10;101369.22;4111516;28;20004;-60
2023/06/16 01:11:51;;;;;;;;;;;;;;;24.67;36.07;101370.03;4112586;28;20013;-59
2023/06/16 01:14:14;;;;;;;;;;;;;;;24.66;36.12;101368.34;4112635;28;19930;-60
2023/06/16 01:16:18;;;;;;;;;;;;;;;24.66;36.25;101364.81;4112421;28;19926;-59
2023/06/16 01:18:23;;;;;;;;;;;;;;;24.65;36.14;101366.59;4111724;28;19926;-60
2023/06/16 01:20:32;;;;;;;;;;;;;;;24.65;35.89;101360.38;4112067;28;20017;-60
2023/06/16 01:22:50;;;;;;;;;;;;;;;24.64;36.15;101361.34;4112550;28;20356;-59
2023/06/16 01:24:54;;;;;;;;;;;;;;;24.63;36.08;101362.34;4126957;28;19930;-60
2023/06/16 01:26:58;;;;;;;;;;;;;;;24.63;36.20;101362.34;4111853;28;19968;-60
2023/06/16 01:29:00;;;;;;;;;;;;;;;24.62;36.14;101358.81;4111411;28;20411;-60
2023/06/16 01:31:02;;;;;;;;;;;;;;;24.62;36.19;101361.50;4112126;28;19926;-60
2023/06/16 01:33:04;;;;;;;;;;;;;;;24.61;36.10;101359.78;4143395;28;19976;-60
2023/06/16 01:35:06;;;;;;;;;;;;;;;24.59;36.03;101356.38;4119803;28;19925;-60
2023/06/16 01:37:10;;;;;;;;;;;;;;;24.60;36.26;101357.22;4128500;28;19926;-60
2023/06/16 01:39:13;;;;;;;;;;;;;;;24.58;36.26;101351.97;4129428;28;19949;-60
2023/06/16 01:41:18;;;;;;;;;;;;;;;24.57;36.25;101358.34;4130923;28;20251;-59
2023/06/16 01:43:20;;;;;;;;;;;;;;;24.56;36.10;101349.41;4130979;28;19925;-59
2023/06/16 01:45:22;;;;;;;;;;;;;;;24.56;36.21;101349.41;4131216;28;20357;-60
2023/06/16 01:47:24;;;;;;;;;;;;;;;24.56;36.15;101348.56;4127738;28;19933;-60
2023/06/16 01:49:26;;;;;;;;;;;;;;;24.56;36.19;101356.63;4113820;28;19938;-60
2023/06/16 01:51:28;;;;;;;;;;;;;;;24.55;36.25;101349.56;4115003;28;20387;-59
2023/06/16 01:53:30;;;;;;;;;;;;;;;24.54;36.26;101347.84;4114708;28;19937;-59
2023/06/16 01:55:31;;;;;;;;;;;;;;;24.53;35.85;101355.06;4114369;28;19926;-60
2023/06/16 01:57:34;;;;;;;;;;;;;;;24.53;35.92;101355.06;4114499;28;19973;-59
2023/06/16 01:59:36;;;;;;;;;;;;;;;24.52;35.98;101358.75;4113898;28;19993;-60
2023/06/16 02:01:41;;;;;;;;;;;;;;;24.52;36.23;101358.75;4114884;28;20008;-59
2023/06/16 02:03:48;;;;;;;;;;;;;;;24.51;36.21;101348.09;4114722;28;19970;-59
2023/06/16 02:05:51;;;;;;;;;;;;;;;24.51;36.39;101358.84;4114593;28;19934;-60
2023/06/16 02:07:55;;;;;;;;;;;;;;;24.51;36.39;101359.72;4114824;28;20442;-59
2023/06/16 02:09:58;;;;;;;;;;;;;;;24.49;36.37;101356.28;4113192;28;19926;-59
2023/06/16 02:12:00;;;;;;;;;;;;;;;24.50;36.11;101357.16;4114514;28;19926;-59
2023/06/16 02:14:02;;;;;;;;;;;;;;;24.49;36.44;101350.06;4114793;28;19926;-59
2023/06/16 02:16:05;;;;;;;;;;;;;;;24.48;36.42;101348.38;4114682;28;19926;-59
2023/06/16 02:18:09;;;;;;;;;;;;;;;24.47;36.25;101354.72;4114403;28;19926;-60
2023/06/16 02:20:14;;;;;;;;;;;;;;;24.47;36.51;101350.19;4113674;28;19961;-59
2023/06/16 02:22:16;;;;;;;;;;;;;;;24.46;36.40;101358.38;4114597;28;19932;-60
2023/06/16 02:24:17;;;;;;;;;;;;;;;24.47;36.21;101352.03;4114345;28;19972;-60
2023/06/16 02:26:19;;;;;;;;;;;;;;;24.45;36.52;101354.84;4113878;28;19930;-60
2023/06/16 02:28:21;;;;;;;;;;;;;;;24.45;36.35;101354.84;4114538;28;19981;-60
2023/06/16 02:30:23;;;;;;;;;;;;;;;24.45;36.54;101357.56;4113293;28;20353;-59
2023/06/16 02:32:25;;;;;;;;;;;;;;;24.44;36.46;101357.69;4114496;28;20012;-60
2023/06/16 02:34:27;;;;;;;;;;;;;;;24.43;36.35;101359.50;4116745;28;19970;-60
2023/06/16 02:36:29;;;;;;;;;;;;;;;24.43;36.43;101358.66;4130303;28;20414;-59
2023/06/16 02:38:31;;;;;;;;;;;;;;;24.43;36.48;101355.97;4129827;28;20032;-59
2023/06/16 02:40:32;;;;;;;;;;;;;;;24.41;36.52;101358.78;4129641;28;19926;-59
2023/06/16 02:42:34;;;;;;;;;;;;;;;24.41;36.52;101361.47;4130122;28;20017;-58
2023/06/16 02:44:35;;;;;;;;;;;;;;;24.40;36.29;101354.41;4130292;28;19926;-59
2023/06/16 02:46:37;;;;;;;;;;;;;;;24.40;36.54;101352.56;4130274;28;19948;-60
2023/06/16 02:48:38;;;;;;;;;;;;;;;24.39;36.52;101350.84;4115966;28;20004;-59
2023/06/16 02:50:40;;;;;;;;;;;;;;;24.38;36.62;101346.44;4114085;28;19988;-60
2023/06/16 02:52:42;;;;;;;;;;;;;;;24.38;36.38;101350.97;4113912;28;19933;-60
2023/06/16 02:54:44;;;;;;;;;;;;;;;24.37;36.32;101355.50;4113843;28;19937;-60
2023/06/16 02:56:45;;;;;;;;;;;;;;;24.37;36.61;101351.97;4113997;28;20021;-59
2023/06/16 02:58:47;;;;;;;;;;;;;;;24.36;36.46;101347.56;4113230;28;20380;-60
2023/06/16 03:00:48;;;;;;;;;;;;;;;24.36;36.55;101347.56;4113899;28;19930;-59
2023/06/16 03:02:50;;;;;;;;;;;;;;;24.35;36.62;101351.22;4113860;28;19979;-60
2023/06/16 03:04:52;;;;;;;;;;;;;;;24.35;36.37;101353.91;4112576;28;19930;-59
2023/06/16 03:06:57;;;;;;;;;;;;;;;24.34;36.58;101355.75;4114037;28;19973;-59
2023/06/16 03:08:59;;;;;;;;;;;;;;;24.34;36.70;101354.88;4112470;28;20015;-60
2023/06/16 03:11:00;;;;;;;;;;;;;;;24.33;36.65;101354.06;4113898;28;19926;-59
2023/06/16 03:13:02;;;;;;;;;;;;;;;24.33;36.64;101358.59;4113684;28;19969;-59
2023/06/16 03:15:04;;;;;;;;;;;;;;;24.32;36.73;101351.50;4113969;28;19933;-59
2023/06/16 03:17:06;;;;;;;;;;;;;;;24.31;36.52;101349.78;4113616;28;19926;-59
2023/06/16 03:19:08;;;;;;;;;;;;;;;24.30;36.29;101348.91;4112796;28;19930;-59
2023/06/16 03:21:10;;;;;;;;;;;;;;;24.30;36.72;101351.59;4113535;28;19926;-60
2023/06/16 03:23:12;;;;;;;;;;;;;;;24.30;36.87;101348.91;4113594;28;19926;-59
2023/06/16 03:25:15;;;;;;;;;;;;;;;24.29;36.77;101347.25;4113734;28;19930;-59
2023/06/16 03:27:16;;;;;;;;;;;;;;;24.29;36.90;101358.00;4112526;28;19930;-59
2023/06/16 03:29:18;;;;;;;;;;;;;;;24.28;36.78;101353.59;4096793;28;19926;-59
2023/06/16 03:31:20;;;;;;;;;;;;;;;24.28;36.42;101355.41;4097691;28;19958;-59
2023/06/16 03:33:21;;;;;;;;;;;;;;;24.26;36.89;101360.94;4128503;28;19932;-59
2023/06/16 03:35:23;;;;;;;;;;;;;;;24.26;36.84;101369.00;4117489;28;19933;-59
2023/06/16 03:37:25;;;;;;;;;;;;;;;24.26;36.84;101363.63;4129404;28;19933;-59
2023/06/16 03:39:26;;;;;;;;;;;;;;;24.26;36.71;101370.84;4127545;28;20628;-59
2023/06/16 03:41:30;;;;;;;;;;;;;;;24.26;36.52;101370.84;4129854;28;20363;-59
2023/06/16 03:43:32;;;;;;;;;;;;;;;24.24;36.62;101363.75;4129764;28;19926;-59
2023/06/16 03:45:33;;;;;;;;;;;;;;;24.24;36.81;101358.38;4129459;28;19926;-59
2023/06/16 03:47:35;;;;;;;;;;;;;;;24.24;36.92;101362.88;4124879;28;19945;-59
2023/06/16 03:49:37;;;;;;;;;;;;;;;24.23;37.15;101364.72;4112263;28;19927;-60
2023/06/16 03:51:39;;;;;;;;;;;;;;;24.24;36.96;101365.56;4113278;28;20376;-60
2023/06/16 03:53:42;;;;;;;;;;;;;;;24.22;37.08;101363.00;4113266;28;19926;-60
2023/06/16 03:55:44;;;;;;;;;;;;;;;24.22;36.81;101370.25;4113635;28;20352;-59
2023/06/16 03:57:46;;;;;;;;;;;;;;;24.21;36.97;101364.00;4113325;28;20017;-59
2023/06/16 03:59:47;;;;;;;;;;;;;;;24.21;36.99;101364.00;4112377;28;19926;-59
2023/06/16 04:01:50;;;;;;;;;;;;;;;24.20;36.80;101358.75;4112421;28;19930;-59
2023/06/16 04:03:52;;;;;;;;;;;;;;;24.19;37.10;101363.28;4113246;28;20016;-59
2023/06/16 04:05:54;;;;;;;;;;;;;;;24.19;36.82;101368.66;4112977;28;20299;-58
2023/06/16 04:07:56;;;;;;;;;;;;;;;24.20;37.10;101366.81;4113188;28;19926;-59
2023/06/16 04:09:58;;;;;;;;;;;;;;;24.18;37.13;101358.03;4111871;28;20017;-59
2023/06/16 04:11:59;;;;;;;;;;;;;;;24.18;36.77;101366.94;4113279;28;19931;-59
2023/06/16 04:14:01;;;;;;;;;;;;;;;24.17;37.28;101367.94;4113026;28;20017;-59
2023/06/16 04:16:02;;;;;;;;;;;;;;;24.18;36.98;101374.16;4112917;28;20021;-60
2023/06/16 04:18:04;;;;;;;;;;;;;;;24.18;37.08;101379.53;4113009;28;20115;-59
2023/06/16 04:20:10;;;;;;;;;;;;;;;24.17;37.63;101364.38;4112139;28;20358;-60
2023/06/16 04:22:11;;;;;;;;;;;;;;;24.16;37.51;101371.59;4112578;28;19980;-59
2023/06/16 04:24:14;;;;;;;;;;;;;;;24.16;37.07;101376.97;4111733;28;19961;-59
2023/06/16 04:26:18;;;;;;;;;;;;;;;24.16;36.81;101385.03;4112696;28;19926;-59
2023/06/16 04:28:22;;;;;;;;;;;;;;;24.16;36.78;101381.50;4112714;28;20096;-60
2023/06/16 04:30:24;;;;;;;;;;;;;;;24.14;37.18;101381.59;4111409;28;19926;-59
2023/06/16 04:32:28;;;;;;;;;;;;;;;24.15;37.14;101382.47;4112078;28;20480;-60
2023/06/16 04:34:31;;;;;;;;;;;;;;;24.14;37.18;101376.22;4115762;28;19979;-59
2023/06/16 04:36:33;;;;;;;;;;;;;;;24.14;37.44;101378.09;4128688;28;19975;-60
2023/06/16 04:38:34;;;;;;;;;;;;;;;24.14;37.36;101383.47;4128961;28;19957;-60
2023/06/16 04:40:36;;;;;;;;;;;;;;;24.13;37.49;101384.44;4127725;28;19972;-59
2023/06/16 04:42:38;;;;;;;;;;;;;;;24.11;37.83;101384.56;4129012;28;19926;-60
2023/06/16 04:44:40;;;;;;;;;;;;;;;24.12;37.43;101378.22;4128548;28;19934;-60
2023/06/16 04:46:42;;;;;;;;;;;;;;;24.12;37.16;101377.34;4128837;28;19926;-59
2023/06/16 04:48:44;;;;;;;;;;;;;;;24.12;37.50;101380.03;4114828;28;19932;-59
2023/06/16 04:50:46;;;;;;;;;;;;;;;24.09;37.47;101381.97;4111380;28;20354;-60
2023/06/16 04:52:49;;;;;;;;;;;;;;;24.10;37.57;101372.09;4112830;28;19930;-59
2023/06/16 04:54:51;;;;;;;;;;;;;;;24.08;37.40;101366.00;4112689;28;19934;-60
2023/06/16 04:56:53;;;;;;;;;;;;;;;24.10;37.41;101377.47;4112905;28;19926;-59
2023/06/16 04:58:54;;;;;;;;;;;;;;;24.09;37.63;101373.91;4127229;28;19950;-59
2023/06/16 05:00:56;;;;;;;;;;;;;;;24.09;37.41;101376.59;4111631;28;19926;-60
2023/06/16 05:02:57;;;;;;;;;;;;;;;24.09;37.48;101378.47;4112697;28;19926;-59
2023/06/16 05:05:01;;;;;;;;;;;;;;;24.09;37.78;101381.13;4112200;28;19930;-59
2023/06/16 05:07:03;;;;;;;;;;;;;;;24.08;37.71;101369.56;4112515;28;19929;-60
2023/06/16 05:09:05;;;;;;;;;;;;;;;24.07;37.54;101370.53;4111751;28;19979;-60
2023/06/16 05:11:07;;;;;;;;;;;;;;;24.07;37.76;101370.53;4112224;28;19949;-59
2023/06/16 05:13:09;;;;;;;;;;;;;;;24.08;37.88;101371.38;4114982;28;19969;-59
2023/06/16 05:15:10;;;;;;;;;;;;;;;24.08;37.32;101374.94;4115356;28;19980;-59
2023/06/16 05:17:12;;;;;;;;;;;;;;;24.07;37.53;101375.03;4115126;28;19926;-58
2023/06/16 05:19:13;;;;;;;;;;;;;;;24.07;37.32;101366.97;4114148;28;19936;-60
2023/06/16 05:21:15;;;;;;;;;;;;;;;24.07;37.30;101369.66;4115202;28;19933;-59
2023/06/16 05:23:17;;;;;;;;;;;;;;;24.07;37.41;101369.66;4115402;28;19926;-60
2023/06/16 05:25:18;;;;;;;;;;;;;;;24.07;37.58;101369.66;4115518;28;19934;-59
2023/06/16 05:27:22;;;;;;;;;;;;;;;24.06;37.64;101370.66;4114845;28;19976;-58
2023/06/16 05:29:24;;;;;;;;;;;;;;;24.05;37.71;101364.41;4114029;28;19926;-59
2023/06/16 05:31:26;;;;;;;;;;;;;;;24.05;37.88;101372.47;4114952;28;19926;-61
2023/06/16 05:33:28;;;;;;;;;;;;;;;24.05;37.54;101372.47;4114719;28;19998;-58
2023/06/16 05:35:29;;;;;;;;;;;;;;;24.04;37.68;101373.47;4126050;28;20314;-62
2023/06/16 05:37:31;;;;;;;;;;;;;;;24.05;37.66;101368.94;4131175;28;20009;-62
2023/06/16 05:39:32;;;;;;;;;;;;;;;24.04;37.92;101372.63;4129904;28;19929;-61
2023/06/16 05:41:35;;;;;;;;;;;;;;;24.03;37.60;101373.59;4162167;28;19932;-61
2023/06/16 05:43:37;;;;;;;;;;;;;;;24.03;37.75;101376.28;4131059;28;19932;-62
2023/06/16 05:45:39;;;;;;;;;;;;;;;24.02;37.63;101369.19;4130887;28;19949;-59
2023/06/16 05:47:40;;;;;;;;;;;;;;;24.03;37.73;101378.97;4125433;28;19930;-59
2023/06/16 05:49:42;;;;;;;;;;;;;;;24.03;37.86;101365.53;4113994;28;19926;-61
2023/06/16 05:51:43;;;;;;;;;;;;;;;24.03;38.00;101369.06;4115277;28;19926;-60
2023/06/16 05:53:45;;;;;;;;;;;;;;;24.02;37.96;101371.88;4114906;28;19979;-60
2023/06/16 05:55:52;;;;;;;;;;;;;;;24.03;38.11;101368.22;4114792;28;20024;-61
2023/06/16 05:57:53;;;;;;;;;;;;;;;24.02;37.86;101370.06;4114663;28;19930;-58
2023/06/16 05:59:55;;;;;;;;;;;;;;;24.03;38.08;101368.22;4113732;28;19971;-59
2023/06/16 06:01:57;;;;;;;;;;;;;;;24.01;38.11;101365.66;4114297;28;20367;-59
2023/06/16 06:03:58;;;;;;;;;;;;;;;24.02;37.63;101364.69;4114916;28;19964;-60
2023/06/16 06:06:01;;;;;;;;;;;;;;;24.02;37.79;101364.69;4114663;28;19962;-60
2023/06/16 06:08:03;;;;;;;;;;;;;;;24.02;38.08;101366.50;4114681;28;20041;-59
2023/06/16 06:10:05;;;;;;;;;;;;;;;24.02;38.15;101372.75;4113335;28;19979;-59
2023/06/16 06:12:08;;;;;;;;;;;;;;;24.01;38.25;101371.03;4114682;28;19930;-59
2023/06/16 06:14:11;;;;;;;;;;;;;;;24.01;37.78;101376.41;4114683;28;20378;-61
2023/06/16 06:16:13;;;;;;;;;;;;;;;24.01;37.81;101376.41;4114478;28;19932;-60
2023/06/16 06:18:16;;;;;;;;;;;;;;;24.00;37.85;101380.06;4114439;28;19926;-60
2023/06/16 06:20:22;;;;;;;;;;;;;;;24.00;37.81;101369.31;4113435;28;20384;-60
2023/06/16 06:22:31;;;;;;;;;;;;;;;23.99;37.64;101378.38;4113307;28;19934;-60
2023/06/16 06:24:32;;;;;;;;;;;;;;;23.99;38.24;101374.84;4113951;28;20359;-60
2023/06/16 06:26:38;;;;;;;;;;;;;;;23.98;38.06;101382.03;4114366;28;20281;-59
2023/06/16 06:28:39;;;;;;;;;;;;;;;23.98;37.75;101379.34;4114441;28;20334;-60
2023/06/16 06:30:41;;;;;;;;;;;;;;;23.99;38.11;101377.53;4113132;28;19968;-60
2023/06/16 06:32:42;;;;;;;;;;;;;;;23.99;38.13;101383.75;4114066;28;20485;-60
2023/06/16 06:34:44;;;;;;;;;;;;;;;24.00;37.99;101385.44;4119066;28;19926;-60
2023/06/16 06:36:47;;;;;;;;;;;;;;;23.99;38.04;101389.13;4130556;28;20021;-61
2023/06/16 06:38:49;;;;;;;;;;;;;;;24.00;38.00;101390.81;4130304;28;20422;-59
2023/06/16 06:40:50;;;;;;;;;;;;;;;24.00;37.97;101393.50;4129424;28;20032;-59
2023/06/16 06:42:52;;;;;;;;;;;;;;;24.00;37.92;101390.81;4130385;28;20361;-59
2023/06/16 06:44:53;;;;;;;;;;;;;;;24.01;37.85;101397.91;4130414;28;20013;-59
2023/06/16 06:46:55;;;;;;;;;;;;;;;24.01;37.93;101399.72;4130106;28;20398;-59
2023/06/16 06:48:57;;;;;;;;;;;;;;;24.03;37.87;101398.63;4114554;28;20294;-59
2023/06/16 06:50:59;;;;;;;;;;;;;;;24.04;37.73;101403.00;4113011;28;20013;-59
2023/06/16 06:53:00;;;;;;;;;;;;;;;24.05;37.98;101406.56;4114289;28;19936;-60
2023/06/16 06:55:03;;;;;;;;;;;;;;;24.05;37.95;101412.78;4114077;28;19926;-59
2023/06/16 06:57:04;;;;;;;;;;;;;;;24.07;37.79;101418.91;4114113;28;19931;-59
2023/06/16 06:59:06;;;;;;;;;;;;;;;24.09;37.81;101411.53;4112613;28;19933;-59
2023/06/16 07:01:08;;;;;;;;;;;;;;;24.12;37.54;101421.22;4112729;28;19926;-60
2023/06/16 07:03:11;;;;;;;;;;;;;;;24.14;37.43;101424.59;4114100;28;19926;-61
2023/06/16 07:05:13;;;;;;;;;;;;;;;24.16;37.44;101425.34;4113790;28;20483;-60
2023/06/16 07:07:14;;;;;;;;;;;;;;;24.18;37.59;101426.09;4114102;28;19969;-60
2023/06/16 07:09:16;;;;;;;;;;;;;;;24.20;37.86;101423.25;4113908;28;19932;-60
2023/06/16 07:11:31;;;;;;;;;;;;;;;24.23;37.58;101433.78;4113547;28;19930;-57
2023/06/16 07:13:33;;;;;;;;;;;;;;;24.26;37.70;101436.19;4114093;28;19930;-60
2023/06/16 07:15:34;;;;;;;;;;;;;;;24.28;37.62;101433.38;4113586;28;19995;-60
2023/06/16 07:17:36;;;;;;;;;;;;;;;24.29;37.60;101432.38;4113626;28;19973;-60
2023/06/16 07:19:37;;;;;;;;;;;;;;;24.31;37.62;101436.66;4112911;28;19958;-61
2023/06/16 07:21:39;;;;;;;;;;;;;;;24.33;37.53;101436.56;4113399;28;20310;-60
2023/06/16 07:23:40;;;;;;;;;;;;;;;24.34;37.52;101440.91;4113741;28;19930;-60
2023/06/16 07:25:42;;;;;;;;;;;;;;;24.36;37.39;101431.78;4113647;28;20028;-61
2023/06/16 07:27:44;;;;;;;;;;;;;;;24.37;37.47;101435.31;4113771;28;20403;-59
2023/06/16 07:29:45;;;;;;;;;;;;;;;24.39;37.22;101436.88;4112086;28;19926;-60
2023/06/16 07:31:47;;;;;;;;;;;;;;;24.40;37.35;101430.53;4113524;28;19926;-60
2023/06/16 07:33:48;;;;;;;;;;;;;;;24.43;37.36;101428.56;4113730;28;20013;-60
2023/06/16 07:35:50;;;;;;;;;;;;;;;24.43;37.32;101433.94;4126182;28;19926;-60
2023/06/16 07:37:51;;;;;;;;;;;;;;;24.43;37.23;101434.78;4129547;28;19979;-60
2023/06/16 07:39:53;;;;;;;;;;;;;;;24.44;37.11;101430.28;4128474;28;19925;-60
2023/06/16 07:41:54;;;;;;;;;;;;;;;24.45;37.26;101427.47;4129502;28;19937;-60
2023/06/16 07:43:56;;;;;;;;;;;;;;;24.46;36.95;101437.22;4129131;28;19925;-59
2023/06/16 07:45:58;;;;;;;;;;;;;;;24.47;36.94;101444.28;4129411;28;20375;-60
2023/06/16 07:48:00;;;;;;;;;;;;;;;24.49;36.80;101433.44;4121861;28;20361;-60
2023/06/16 07:50:02;;;;;;;;;;;;;;;24.48;37.31;101437.94;4112441;28;19936;-60
2023/06/16 07:52:04;;;;;;;;;;;;;;;24.49;37.00;101439.66;4113235;28;19926;-60
2023/06/16 07:54:06;;;;;;;;;;;;;;;24.49;37.01;101444.19;4113368;28;19927;-60
2023/06/16 07:56:08;;;;;;;;;;;;;;;24.50;37.09;101448.59;4113333;28;20391;-60
2023/06/16 07:58:10;;;;;;;;;;;;;;;24.51;37.09;101442.19;4112895;28;20304;-60
2023/06/16 08:00:14;;;;;;;;;;;;;;;24.50;36.72;101445.91;4112183;28;20021;-61
2023/06/16 08:02:16;;;;;;;;;;;;;;;24.52;36.99;101447.47;4113262;28;19926;-60
2023/06/16 08:04:17;;;;;;;;;;;;;;;24.50;37.00;101438.69;4113295;28;19926;-61
2023/06/16 08:06:20;;;;;;;;;;;;;;;24.51;37.08;101439.50;4113234;28;20379;-60
2023/06/16 08:08:22;;;;;;;;;;;;;;;24.51;37.09;101442.19;4113422;28;20041;-60
2023/06/16 08:10:25;;;;;;;;;;;;;;;24.51;36.94;101439.50;4112117;28;20035;-60
2023/06/16 08:12:27;;;;;;;;;;;;;;;24.51;36.87;101434.13;4112801;28;19983;-61
2023/06/16 08:14:30;;;;;;;;;;;;;;;24.51;36.77;101431.44;4113241;28;20019;-60
2023/06/16 08:16:32;;;;;;;;;;;;;;;24.50;36.67;101430.59;4112975;28;19926;-60
2023/06/16 08:18:34;;;;;;;;;;;;;;;24.52;36.78;101434.03;4111697;28;20299;-60
2023/06/16 08:20:35;;;;;;;;;;;;;;;24.52;36.59;101433.16;4111845;28;20353;-60
2023/06/16 08:22:37;;;;;;;;;;;;;;;24.52;36.16;101431.34;4113169;28;19945;-61
2023/06/16 08:24:38;;;;;;;;;;;;;;;24.52;36.50;101428.66;4112958;28;19926;-60
2023/06/16 08:26:40;;;;;;;;;;;;;;;24.53;36.70;101426.81;4112814;28;20037;-60
2023/06/16 08:28:42;;;;;;;;;;;;;;;24.54;36.82;101421.28;4112791;28;19930;-60
2023/06/16 08:30:44;;;;;;;;;;;;;;;24.54;36.41;101426.66;4111678;28;19930;-59
2023/06/16 08:32:46;;;;;;;;;;;;;;;24.54;36.65;101423.13;4113076;28;19999;-60
2023/06/16 08:34:47;;;;;;;;;;;;;;;24.54;36.58;101418.59;4118157;28;19951;-61
2023/06/16 08:36:49;;;;;;;;;;;;;;;24.56;36.51;101415.81;4128984;28;19926;-59
2023/06/16 08:38:52;;;;;;;;;;;;;;;24.56;35.93;101413.13;4128862;28;19964;-59
2023/06/16 08:40:53;;;;;;;;;;;;;;;24.56;36.53;101407.75;4159266;28;19972;-61
2023/06/16 08:42:55;;;;;;;;;;;;;;;24.56;36.37;101408.56;4128594;28;19953;-61
2023/06/16 08:44:57;;;;;;;;;;;;;;;24.58;36.03;101408.44;4129231;28;20009;-60
2023/06/16 08:46:59;;;;;;;;;;;;;;;24.61;36.33;101412.72;4160705;28;19925;-60
2023/06/16 08:49:01;;;;;;;;;;;;;;;24.61;35.86;101408.19;4115828;28;20376;-61
2023/06/16 08:51:04;;;;;;;;;;;;;;;24.64;35.84;101415.16;4114534;28;19933;-60
2023/06/16 08:53:08;;;;;;;;;;;;;;;24.64;35.84;101407.94;4115682;28;19926;-61
2023/06/16 08:55:13;;;;;;;;;;;;;;;24.65;35.88;101401.56;4115480;28;19930;-60
2023/06/16 08:57:17;;;;;;;;;;;;;;;24.67;36.00;101406.88;4115221;28;19930;-59
2023/06/16 08:59:19;;;;;;;;;;;;;;;24.67;35.82;101404.16;4115598;28;20065;-60
2023/06/16 09:01:21;;;;;;;;;;;;;;;24.68;35.14;101403.16;4114371;28;19965;-60
2023/06/16 09:03:25;;;;;;;;;;;;;;;24.68;35.25;101405.84;4115687;28;19926;-59
2023/06/16 09:05:30;;;;;;;;;;;;;;;24.68;34.99;101401.34;4115358;28;19956;-59
2023/06/16 09:07:32;;;;;;;;;;;;;;;24.69;35.32;101405.75;4115450;28;20033;-60
2023/06/16 09:09:34;;;;;;;;;;;;;;;24.69;34.23;101405.75;4115526;28;20017;-60
2023/06/16 09:11:35;;;;;;;;;;;;;;;24.71;34.77;101402.91;4114116;28;19988;-59
2023/06/16 09:13:41;;;;;;;;;;;;;;;24.70;34.24;101399.38;4115605;28;19926;-59
2023/06/16 09:15:46;;;;;;;;;;;;;;;24.71;34.30;101397.53;4115351;28;19984;-59
2023/06/16 09:17:48;;;;;;;;;;;;;;;24.72;34.42;101407.31;4146323;28;19933;-59
2023/06/16 09:19:52;;;;;;;;;;;;;;;24.73;34.12;101403.66;4114930;28;20025;-60
2023/06/16 09:21:54;;;;;;;;;;;;;;;24.74;34.53;101399.09;4115005;28;19937;-58
2023/06/16 09:23:57;;;;;;;;;;;;;;;24.76;34.76;101400.69;4115120;28;19932;-60
2023/06/16 09:25:59;;;;;;;;;;;;;;;24.78;34.44;101404.09;4114907;28;20343;-60
2023/06/16 09:28:10;;;;;;;;;;;;;;;24.79;34.88;101394.19;4114951;28;19992;-59
2023/06/16 09:30:13;;;;;;;;;;;;;;;24.81;34.67;101397.59;4113947;28;19975;-61
2023/06/16 09:32:15;;;;;;;;;;;;;;;24.80;34.40;101391.38;4115351;28;20335;-60
2023/06/16 09:34:17;;;;;;;;;;;;;;;24.81;34.36;101400.28;4116330;28;19930;-60
2023/06/16 09:36:27;;;;;;;;;;;;;;;24.80;34.79;101391.38;4131318;28;20012;-60
2023/06/16 09:38:35;;;;;;;;;;;;;;;24.82;34.53;101397.47;4131324;28;20422;-60
2023/06/16 09:40:38;;;;;;;;;;;;;;;24.83;34.02;101393.78;4129707;28;19926;-60
2023/06/16 09:42:42;;;;;;;;;;;;;;;24.85;33.28;101389.16;4131160;28;19929;-60
2023/06/16 09:44:43;;;;;;;;;;;;;;;24.85;33.77;101388.31;4131272;28;19926;-60
2023/06/16 09:46:46;;;;;;;;;;;;;;;24.88;33.80;101385.34;4130837;28;20338;-60
2023/06/16 09:48:49;;;;;;;;;;;;;;;24.90;33.91;101390.56;4116638;28;19998;-60
2023/06/16 09:50:51;;;;;;;;;;;;;;;24.90;33.40;101385.19;4113770;28;19998;-60
2023/06/16 09:52:54;;;;;;;;;;;;;;;24.91;33.01;101392.28;4114928;28;19952;-59
2023/06/16 09:54:58;;;;;;;;;;;;;;;24.91;32.83;101389.59;4114711;28;20401;-60
2023/06/16 09:57:01;;;;;;;;;;;;;;;24.92;32.63;101388.63;4114768;28;19926;-60
2023/06/16 09:59:03;;;;;;;;;;;;;;;24.92;33.13;101389.44;4113977;28;19926;-60
2023/06/16 10:01:05;;;;;;;;;;;;;;;24.92;32.15;101389.44;4113954;28;19972;-60
2023/06/16 10:03:09;;;;;;;;;;;;;;;24.93;31.87;101388.47;4115030;28;20315;-60
2023/06/16 10:05:16;;;;;;;;;;;;;;;24.94;32.63;101392.03;4114975;28;19929;-59
2023/06/16 10:07:18;;;;;;;;;;;;;;;24.94;32.89;101390.19;4114768;28;19937;-60
2023/06/16 10:09:25;;;;;;;;;;;;;;;24.95;33.16;101380.28;4114534;28;19940;-60
2023/06/16 10:11:29;;;;;;;;;;;;;;;24.96;33.04;101388.22;4113655;28;19948;-60
2023/06/16 10:13:31;;;;;;;;;;;;;;;24.98;32.39;101386.25;4114514;28;20422;-60
2023/06/16 10:15:37;;;;;;;;;;;;;;;25.00;32.08;101383.44;4114748;28;19926;-60
2023/06/16 10:17:40;;;;;;;;;;;;;;;25.00;32.96;101383.44;4113872;28;19926;-60
2023/06/16 10:19:46;;;;;;;;;;;;;;;25.02;32.84;101381.47;4114641;28;19926;-60
2023/06/16 10:21:49;;;;;;;;;;;;;;;25.02;32.69;101385.00;4113435;28;19974;-60
2023/06/16 10:23:51;;;;;;;;;;;;;;;25.02;32.14;101385.00;4114279;28;20308;-60
2023/06/16 10:25:53;;;;;;;;;;;;;;;25.03;31.67;101375.94;4114574;28;19937;-61
2023/06/16 10:27:56;;;;;;;;;;;;;;;24.95;32.27;101372.22;4114238;28;19933;-61
2023/06/16 10:30:00;;;;;;;;;;;;;;;25.04;31.60;101384.84;4114331;28;20406;-61